sensor_id;sensor_type;location;lat;lon;timestamp;pressure;altitude;pressure_sealevel;temperature;humidity
70488;BME280;57976;48.174;16.370;2024-03-25T00:00:06;98213.16;;;6.98;83.74
70488;BME280;57976;48.174;16.370;2024-03-25T00:02:15;98209.21;;;6.98;83.30
70488;BME280;57976;48.174;16.370;2024-03-25T00:04:19;98204.65;;;6.98;83.18
70488;BME280;57976;48.174;16.370;2024-03-25T00:06:26;98208.61;;;6.99;83.12
70488;BME280;57976;48.174;16.370;2024-03-25T00:08:30;98207.43;;;6.99;82.52
70488;BME280;57976;48.174;16.370;2024-03-25T00:10:35;98206.04;;;7.00;82.49
70488;BME280;57976;48.174;16.370;2024-03-25T00:12:39;98222.24;;;7.04;81.88
70488;BME280;57976;48.174;16.370;2024-03-25T00:14:45;98219.15;;;7.05;81.69
70488;BME280;57976;48.174;16.370;2024-03-25T00:16:49;98215.23;;;7.04;81.46
70488;BME280;57976;48.174;16.370;2024-03-25T00:18:53;98207.87;;;7.05;81.42
70488;BME280;57976;48.174;16.370;2024-03-25T00:21:00;98217.48;;;7.05;81.28
70488;BME280;57976;48.174;16.370;2024-03-25T00:23:05;98220.70;;;7.05;80.84
70488;BME280;57976;48.174;16.370;2024-03-25T00:25:09;98212.63;;;7.05;81.05
70488;BME280;57976;48.174;16.370;2024-03-25T00:27:14;98209.38;;;7.04;81.27
70488;BME280;57976;48.174;16.370;2024-03-25T00:29:18;98210.47;;;7.05;81.22
70488;BME280;57976;48.174;16.370;2024-03-25T00:31:23;98205.55;;;7.04;81.24
70488;BME280;57976;48.174;16.370;2024-03-25T00:33:27;98206.64;;;7.06;81.53
70488;BME280;57976;48.174;16.370;2024-03-25T00:35:34;98198.16;;;7.05;81.29
70488;BME280;57976;48.174;16.370;2024-03-25T00:37:38;98200.25;;;7.05;81.64
70488;BME280;57976;48.174;16.370;2024-03-25T00:39:43;98201.35;;;7.04;81.72
70488;BME280;57976;48.174;16.370;2024-03-25T00:41:47;98196.71;;;7.04;81.99
70488;BME280;57976;48.174;16.370;2024-03-25T00:43:51;98198.09;;;7.04;82.21
70488;BME280;57976;48.174;16.370;2024-03-25T00:45:56;98192.22;;;7.04;82.15
70488;BME280;57976;48.174;16.370;2024-03-25T00:48:00;98190.52;;;7.05;82.53
70488;BME280;57976;48.174;16.370;2024-03-25T00:50:06;98187.29;;;7.04;82.89
70488;BME280;57976;48.174;16.370;2024-03-25T00:52:13;98188.89;;;7.03;83.17
70488;BME280;57976;48.174;16.370;2024-03-25T00:54:17;98184.65;;;7.05;82.92
70488;BME280;57976;48.174;16.370;2024-03-25T00:56:22;98191.33;;;7.03;83.03
70488;BME280;57976;48.174;16.370;2024-03-25T00:58:26;98186.36;;;7.02;83.26
70488;BME280;57976;48.174;16.370;2024-03-25T01:00:31;98187.79;;;7.02;83.55
70488;BME280;57976;48.174;16.370;2024-03-25T01:02:35;98188.93;;;7.01;83.36
70488;BME280;57976;48.174;16.370;2024-03-25T01:04:40;98190.19;;;7.02;83.63
70488;BME280;57976;48.174;16.370;2024-03-25T01:06:44;98190.95;;;7.03;83.71
70488;BME280;57976;48.174;16.370;2024-03-25T01:08:49;98189.91;;;7.00;83.74
70488;BME280;57976;48.174;16.370;2024-03-25T01:10:54;98199.53;;;7.00;84.71
70488;BME280;57976;48.174;16.370;2024-03-25T01:12:59;98201.73;;;7.02;84.39
70488;BME280;57976;48.174;16.370;2024-03-25T01:15:04;98189.74;;;6.99;84.76
70488;BME280;57976;48.174;16.370;2024-03-25T01:17:08;98200.77;;;7.01;84.96
70488;BME280;57976;48.174;16.370;2024-03-25T01:19:13;98189.58;;;7.01;84.45
70488;BME280;57976;48.174;16.370;2024-03-25T01:21:17;98185.95;;;7.01;84.34
70488;BME280;57976;48.174;16.370;2024-03-25T01:23:22;98185.02;;;7.03;84.68
70488;BME280;57976;48.174;16.370;2024-03-25T01:25:26;98183.19;;;7.03;84.85
70488;BME280;57976;48.174;16.370;2024-03-25T01:27:30;98185.38;;;7.04;84.92
70488;BME280;57976;48.174;16.370;2024-03-25T01:29:35;98183.96;;;7.01;84.85
70488;BME280;57976;48.174;16.370;2024-03-25T01:31:39;98190.40;;;6.99;84.96
70488;BME280;57976;48.174;16.370;2024-03-25T01:33:44;98186.65;;;6.99;85.30
70488;BME280;57976;48.174;16.370;2024-03-25T01:35:49;98185.30;;;6.99;85.37
70488;BME280;57976;48.174;16.370;2024-03-25T01:37:53;98181.43;;;6.99;85.20
70488;BME280;57976;48.174;16.370;2024-03-25T01:39:57;98189.30;;;6.97;85.21
70488;BME280;57976;48.174;16.370;2024-03-25T01:42:02;98188.04;;;6.96;85.35
70488;BME280;57976;48.174;16.370;2024-03-25T01:44:06;98183.57;;;6.97;85.43
70488;BME280;57976;48.174;16.370;2024-03-25T01:46:10;98180.43;;;6.95;85.33
70488;BME280;57976;48.174;16.370;2024-03-25T01:48:15;98182.33;;;6.95;84.94
70488;BME280;57976;48.174;16.370;2024-03-25T01:50:20;98186.25;;;6.94;84.71
70488;BME280;57976;48.174;16.370;2024-03-25T01:52:25;98190.40;;;6.94;84.83
70488;BME280;57976;48.174;16.370;2024-03-25T01:54:30;98193.73;;;6.93;84.71
70488;BME280;57976;48.174;16.370;2024-03-25T01:56:36;98194.71;;;6.94;84.74
70488;BME280;57976;48.174;16.370;2024-03-25T01:58:41;98197.97;;;6.94;84.54
70488;BME280;57976;48.174;16.370;2024-03-25T02:00:48;98199.28;;;6.94;84.67
70488;BME280;57976;48.174;16.370;2024-03-25T02:02:52;98193.10;;;6.92;84.84
70488;BME280;57976;48.174;16.370;2024-03-25T02:04:57;98197.17;;;6.90;85.15
70488;BME280;57976;48.174;16.370;2024-03-25T02:07:03;98198.27;;;6.88;85.22
70488;BME280;57976;48.174;16.370;2024-03-25T02:09:08;98195.71;;;6.86;85.30
70488;BME280;57976;48.174;16.370;2024-03-25T02:11:13;98195.34;;;6.85;85.26
70488;BME280;57976;48.174;16.370;2024-03-25T02:13:18;98192.58;;;6.82;85.23
70488;BME280;57976;48.174;16.370;2024-03-25T02:15:22;98191.23;;;6.82;85.17
70488;BME280;57976;48.174;16.370;2024-03-25T02:17:27;98189.77;;;6.81;85.56
70488;BME280;57976;48.174;16.370;2024-03-25T02:19:32;98186.88;;;6.78;86.52
70488;BME280;57976;48.174;16.370;2024-03-25T02:21:36;98190.49;;;6.77;86.40
70488;BME280;57976;48.174;16.370;2024-03-25T02:23:45;98183.95;;;6.73;86.85
70488;BME280;57976;48.174;16.370;2024-03-25T02:25:52;98183.30;;;6.71;86.69
70488;BME280;57976;48.174;16.370;2024-03-25T02:27:56;98185.91;;;6.70;86.61
70488;BME280;57976;48.174;16.370;2024-03-25T02:30:05;98184.88;;;6.69;86.98
70488;BME280;57976;48.174;16.370;2024-03-25T02:32:09;98176.95;;;6.68;87.34
70488;BME280;57976;48.174;16.370;2024-03-25T02:34:14;98181.06;;;6.66;86.88
70488;BME280;57976;48.174;16.370;2024-03-25T02:36:18;98183.95;;;6.65;87.18
70488;BME280;57976;48.174;16.370;2024-03-25T02:38:22;98178.38;;;6.63;87.50
70488;BME280;57976;48.174;16.370;2024-03-25T02:40:27;98179.18;;;6.62;87.52
70488;BME280;57976;48.174;16.370;2024-03-25T02:42:31;98180.53;;;6.60;87.54
70488;BME280;57976;48.174;16.370;2024-03-25T02:44:36;98176.02;;;6.59;87.89
70488;BME280;57976;48.174;16.370;2024-03-25T02:46:41;98176.54;;;6.58;88.19
70488;BME280;57976;48.174;16.370;2024-03-25T02:48:48;98175.80;;;6.56;88.41
70488;BME280;57976;48.174;16.370;2024-03-25T02:50:52;98173.89;;;6.54;88.51
70488;BME280;57976;48.174;16.370;2024-03-25T02:52:56;98187.25;;;6.53;88.63
70488;BME280;57976;48.174;16.370;2024-03-25T02:55:01;98175.84;;;6.54;88.44
70488;BME280;57976;48.174;16.370;2024-03-25T02:57:05;98178.05;;;6.52;88.71
70488;BME280;57976;48.174;16.370;2024-03-25T02:59:10;98181.50;;;6.51;89.02
70488;BME280;57976;48.174;16.370;2024-03-25T03:01:15;98183.91;;;6.51;88.99
70488;BME280;57976;48.174;16.370;2024-03-25T03:03:20;98187.16;;;6.50;89.25
70488;BME280;57976;48.174;16.370;2024-03-25T03:05:24;98186.96;;;6.50;89.54
70488;BME280;57976;48.174;16.370;2024-03-25T03:07:28;98191.67;;;6.49;89.79
70488;BME280;57976;48.174;16.370;2024-03-25T03:09:33;98183.91;;;6.48;89.65
70488;BME280;57976;48.174;16.370;2024-03-25T03:11:37;98187.20;;;6.47;90.30
70488;BME280;57976;48.174;16.370;2024-03-25T03:13:41;98184.72;;;6.47;90.37
70488;BME280;57976;48.174;16.370;2024-03-25T03:15:46;98188.73;;;6.47;90.00
70488;BME280;57976;48.174;16.370;2024-03-25T03:17:50;98187.33;;;6.45;90.48
70488;BME280;57976;48.174;16.370;2024-03-25T03:19:55;98188.54;;;6.44;91.10
70488;BME280;57976;48.174;16.370;2024-03-25T03:22:00;98194.52;;;6.44;90.81
70488;BME280;57976;48.174;16.370;2024-03-25T03:24:05;98197.53;;;6.42;91.20
70488;BME280;57976;48.174;16.370;2024-03-25T03:26:09;98189.84;;;6.42;91.68
70488;BME280;57976;48.174;16.370;2024-03-25T03:28:13;98192.08;;;6.42;91.44
70488;BME280;57976;48.174;16.370;2024-03-25T03:30:18;98194.07;;;6.42;91.44
70488;BME280;57976;48.174;16.370;2024-03-25T03:32:22;98196.52;;;6.42;91.20
70488;BME280;57976;48.174;16.370;2024-03-25T03:34:27;98197.86;;;6.41;91.11
70488;BME280;57976;48.174;16.370;2024-03-25T03:36:31;98199.48;;;6.44;91.20
70488;BME280;57976;48.174;16.370;2024-03-25T03:38:36;98196.31;;;6.45;90.95
70488;BME280;57976;48.174;16.370;2024-03-25T03:40:40;98192.73;;;6.44;90.96
70488;BME280;57976;48.174;16.370;2024-03-25T03:42:44;98194.28;;;6.44;90.84
70488;BME280;57976;48.174;16.370;2024-03-25T03:44:48;98194.85;;;6.45;90.31
70488;BME280;57976;48.174;16.370;2024-03-25T03:46:53;98191.34;;;6.46;90.15
70488;BME280;57976;48.174;16.370;2024-03-25T03:48:57;98191.59;;;6.46;90.18
70488;BME280;57976;48.174;16.370;2024-03-25T03:51:02;98196.77;;;6.48;89.82
70488;BME280;57976;48.174;16.370;2024-03-25T03:53:06;98194.73;;;6.47;90.13
70488;BME280;57976;48.174;16.370;2024-03-25T03:55:10;98200.92;;;6.49;89.99
70488;BME280;57976;48.174;16.370;2024-03-25T03:57:17;98200.35;;;6.50;89.65
70488;BME280;57976;48.174;16.370;2024-03-25T03:59:22;98207.68;;;6.49;89.56
70488;BME280;57976;48.174;16.370;2024-03-25T04:01:26;98201.33;;;6.51;89.20
70488;BME280;57976;48.174;16.370;2024-03-25T04:03:30;98200.07;;;6.52;88.78
70488;BME280;57976;48.174;16.370;2024-03-25T04:05:35;98206.50;;;6.53;88.56
70488;BME280;57976;48.174;16.370;2024-03-25T04:07:39;98206.73;;;6.55;88.47
70488;BME280;57976;48.174;16.370;2024-03-25T04:09:43;98207.35;;;6.57;88.17
70488;BME280;57976;48.174;16.370;2024-03-25T04:11:48;98212.81;;;6.58;87.80
70488;BME280;57976;48.174;16.370;2024-03-25T04:13:52;98212.72;;;6.59;87.68
70488;BME280;57976;48.174;16.370;2024-03-25T04:16:02;98216.22;;;6.59;87.53
70488;BME280;57976;48.174;16.370;2024-03-25T04:18:07;98216.40;;;6.61;87.65
70488;BME280;57976;48.174;16.370;2024-03-25T04:20:12;98222.73;;;6.62;87.32
70488;BME280;57976;48.174;16.370;2024-03-25T04:22:16;98219.90;;;6.64;87.38
70488;BME280;57976;48.174;16.370;2024-03-25T04:24:21;98224.30;;;6.64;87.26
70488;BME280;57976;48.174;16.370;2024-03-25T04:26:25;98222.34;;;6.64;87.22
70488;BME280;57976;48.174;16.370;2024-03-25T04:28:30;98233.54;;;6.66;87.06
70488;BME280;57976;48.174;16.370;2024-03-25T04:30:34;98233.45;;;6.68;86.50
70488;BME280;57976;48.174;16.370;2024-03-25T04:32:39;98236.55;;;6.69;86.60
70488;BME280;57976;48.174;16.370;2024-03-25T04:34:43;98241.73;;;6.71;86.60
70488;BME280;57976;48.174;16.370;2024-03-25T04:36:47;98238.17;;;6.71;86.28
70488;BME280;57976;48.174;16.370;2024-03-25T04:38:52;98240.17;;;6.73;86.58
70488;BME280;57976;48.174;16.370;2024-03-25T04:40:56;98237.41;;;6.74;86.43
70488;BME280;57976;48.174;16.370;2024-03-25T04:43:00;98242.66;;;6.76;86.28
70488;BME280;57976;48.174;16.370;2024-03-25T04:45:05;98234.42;;;6.77;86.32
70488;BME280;57976;48.174;16.370;2024-03-25T04:47:10;98234.11;;;6.78;86.17
70488;BME280;57976;48.174;16.370;2024-03-25T04:49:14;98238.46;;;6.78;86.09
70488;BME280;57976;48.174;16.370;2024-03-25T04:51:19;98234.15;;;6.79;86.37
70488;BME280;57976;48.174;16.370;2024-03-25T04:53:23;98231.42;;;6.81;86.34
70488;BME280;57976;48.174;16.370;2024-03-25T04:55:28;98236.23;;;6.83;86.18
70488;BME280;57976;48.174;16.370;2024-03-25T04:57:32;98237.23;;;6.83;86.25
70488;BME280;57976;48.174;16.370;2024-03-25T04:59:37;98232.86;;;6.85;86.14
70488;BME280;57976;48.174;16.370;2024-03-25T05:01:41;98241.80;;;6.86;86.09
70488;BME280;57976;48.174;16.370;2024-03-25T05:03:46;98238.05;;;6.86;85.97
70488;BME280;57976;48.174;16.370;2024-03-25T05:05:50;98241.07;;;6.89;86.07
70488;BME280;57976;48.174;16.370;2024-03-25T05:07:54;98248.69;;;6.93;85.96
70488;BME280;57976;48.174;16.370;2024-03-25T05:09:59;98249.34;;;6.96;85.68
70488;BME280;57976;48.174;16.370;2024-03-25T05:12:04;98249.70;;;6.97;85.41
70488;BME280;57976;48.174;16.370;2024-03-25T05:14:08;98257.81;;;7.00;85.55
70488;BME280;57976;48.174;16.370;2024-03-25T05:16:13;98260.13;;;7.02;85.49
70488;BME280;57976;48.174;16.370;2024-03-25T05:18:20;98261.22;;;7.04;85.36
70488;BME280;57976;48.174;16.370;2024-03-25T05:20:24;98263.14;;;7.07;85.22
70488;BME280;57976;48.174;16.370;2024-03-25T05:22:28;98265.42;;;7.08;85.40
70488;BME280;57976;48.174;16.370;2024-03-25T05:24:33;98263.10;;;7.09;85.30
70488;BME280;57976;48.174;16.370;2024-03-25T05:26:37;98261.67;;;7.09;85.55
70488;BME280;57976;48.174;16.370;2024-03-25T05:28:41;98263.42;;;7.10;85.53
70488;BME280;57976;48.174;16.370;2024-03-25T05:30:46;98254.26;;;7.09;85.35
70488;BME280;57976;48.174;16.370;2024-03-25T05:32:50;98258.88;;;7.11;85.34
70488;BME280;57976;48.174;16.370;2024-03-25T05:34:55;98260.65;;;7.12;85.08
70488;BME280;57976;48.174;16.370;2024-03-25T05:36:59;98263.54;;;7.14;84.80
70488;BME280;57976;48.174;16.370;2024-03-25T05:39:04;98270.45;;;7.17;84.60
70488;BME280;57976;48.174;16.370;2024-03-25T05:41:08;98260.93;;;7.17;84.60
70488;BME280;57976;48.174;16.370;2024-03-25T05:43:13;98262.80;;;7.18;84.44
70488;BME280;57976;48.174;16.370;2024-03-25T05:45:18;98268.96;;;7.23;84.23
70488;BME280;57976;48.174;16.370;2024-03-25T05:47:22;98259.62;;;7.26;83.94
70488;BME280;57976;48.174;16.370;2024-03-25T05:49:26;98264.59;;;7.29;83.42
70488;BME280;57976;48.174;16.370;2024-03-25T05:51:31;98271.35;;;7.33;83.30
70488;BME280;57976;48.174;16.370;2024-03-25T05:53:37;98270.48;;;7.38;82.82
70488;BME280;57976;48.174;16.370;2024-03-25T05:55:41;98270.45;;;7.41;82.17
70488;BME280;57976;48.174;16.370;2024-03-25T05:57:45;98267.38;;;7.45;81.68
70488;BME280;57976;48.174;16.370;2024-03-25T05:59:50;98268.31;;;7.49;81.44
70488;BME280;57976;48.174;16.370;2024-03-25T06:01:57;98270.30;;;7.51;81.54
70488;BME280;57976;48.174;16.370;2024-03-25T06:04:01;98282.44;;;7.51;80.69
70488;BME280;57976;48.174;16.370;2024-03-25T06:06:05;98274.30;;;7.54;80.64
70488;BME280;57976;48.174;16.370;2024-03-25T06:08:11;98278.28;;;7.55;80.73
70488;BME280;57976;48.174;16.370;2024-03-25T06:10:15;98283.98;;;7.58;80.44
70488;BME280;57976;48.174;16.370;2024-03-25T06:12:20;98279.61;;;7.59;80.11
70488;BME280;57976;48.174;16.370;2024-03-25T06:14:24;98283.17;;;7.60;80.05
70488;BME280;57976;48.174;16.370;2024-03-25T06:16:28;98279.37;;;7.60;80.18
70488;BME280;57976;48.174;16.370;2024-03-25T06:18:33;98280.67;;;7.61;80.13
70488;BME280;57976;48.174;16.370;2024-03-25T06:20:37;98287.47;;;7.64;79.89
70488;BME280;57976;48.174;16.370;2024-03-25T06:22:41;98293.02;;;7.68;79.94
70488;BME280;57976;48.174;16.370;2024-03-25T06:24:46;98292.27;;;7.72;79.57
70488;BME280;57976;48.174;16.370;2024-03-25T06:26:50;98298.42;;;7.76;79.34
70488;BME280;57976;48.174;16.370;2024-03-25T06:28:55;98298.98;;;7.79;78.83
70488;BME280;57976;48.174;16.370;2024-03-25T06:30:59;98300.15;;;7.82;78.16
70488;BME280;57976;48.174;16.370;2024-03-25T06:33:04;98303.56;;;7.87;78.32
70488;BME280;57976;48.174;16.370;2024-03-25T06:35:08;98297.32;;;7.91;78.02
70488;BME280;57976;48.174;16.370;2024-03-25T06:37:13;98301.09;;;7.95;77.75
70488;BME280;57976;48.174;16.370;2024-03-25T06:39:17;98309.20;;;8.00;77.76
70488;BME280;57976;48.174;16.370;2024-03-25T06:41:21;98305.52;;;8.05;76.19
70488;BME280;57976;48.174;16.370;2024-03-25T06:43:26;98306.26;;;8.12;76.32
70488;BME280;57976;48.174;16.370;2024-03-25T06:45:30;98313.74;;;8.17;76.15
70488;BME280;57976;48.174;16.370;2024-03-25T06:47:34;98307.28;;;8.23;76.15
70488;BME280;57976;48.174;16.370;2024-03-25T06:49:39;98312.30;;;8.29;75.86
70488;BME280;57976;48.174;16.370;2024-03-25T06:51:43;98321.13;;;8.33;75.82
70488;BME280;57976;48.174;16.370;2024-03-25T06:53:47;98318.23;;;8.36;75.58
70488;BME280;57976;48.174;16.370;2024-03-25T06:55:56;98320.58;;;8.41;74.58
70488;BME280;57976;48.174;16.370;2024-03-25T06:58:01;98318.36;;;8.43;74.64
70488;BME280;57976;48.174;16.370;2024-03-25T07:00:07;98318.66;;;8.46;74.19
70488;BME280;57976;48.174;16.370;2024-03-25T07:02:12;98319.06;;;8.49;73.31
70488;BME280;57976;48.174;16.370;2024-03-25T07:04:16;98318.93;;;8.51;73.98
70488;BME280;57976;48.174;16.370;2024-03-25T07:06:20;98324.05;;;8.56;73.36
70488;BME280;57976;48.174;16.370;2024-03-25T07:08:25;98341.54;;;8.62;72.87
70488;BME280;57976;48.174;16.370;2024-03-25T07:10:29;98333.90;;;8.67;72.80
70488;BME280;57976;48.174;16.370;2024-03-25T07:12:33;98331.83;;;8.74;72.07
70488;BME280;57976;48.174;16.370;2024-03-25T07:14:38;98329.69;;;8.81;72.23
70488;BME280;57976;48.174;16.370;2024-03-25T07:16:43;98329.39;;;8.90;71.30
70488;BME280;57976;48.174;16.370;2024-03-25T07:18:51;98334.31;;;8.94;71.45
70488;BME280;57976;48.174;16.370;2024-03-25T07:20:55;98339.46;;;8.99;70.76
70488;BME280;57976;48.174;16.370;2024-03-25T07:23:00;98333.81;;;9.01;70.45
70488;BME280;57976;48.174;16.370;2024-03-25T07:25:05;98335.49;;;9.07;69.57
70488;BME280;57976;48.174;16.370;2024-03-25T07:27:09;98331.95;;;9.09;69.80
70488;BME280;57976;48.174;16.370;2024-03-25T07:29:14;98334.80;;;9.17;69.55
70488;BME280;57976;48.174;16.370;2024-03-25T07:31:18;98348.28;;;9.24;68.63
70488;BME280;57976;48.174;16.370;2024-03-25T07:33:22;98344.59;;;9.31;66.28
70488;BME280;57976;48.174;16.370;2024-03-25T07:35:26;98333.27;;;9.35;66.28
70488;BME280;57976;48.174;16.370;2024-03-25T07:37:31;98341.10;;;9.43;66.62
70488;BME280;57976;48.174;16.370;2024-03-25T07:39:35;98334.94;;;9.49;65.98
70488;BME280;57976;48.174;16.370;2024-03-25T07:41:40;98332.24;;;9.54;65.98
70488;BME280;57976;48.174;16.370;2024-03-25T07:43:44;98346.74;;;9.56;64.72
70488;BME280;57976;48.174;16.370;2024-03-25T07:45:49;98344.04;;;9.62;64.75
70488;BME280;57976;48.174;16.370;2024-03-25T07:47:53;98345.50;;;9.71;65.24
70488;BME280;57976;48.174;16.370;2024-03-25T07:49:57;98352.68;;;9.82;64.68
70488;BME280;57976;48.174;16.370;2024-03-25T07:52:02;98353.08;;;9.88;63.84
70488;BME280;57976;48.174;16.370;2024-03-25T07:54:07;98355.42;;;9.86;63.60
70488;BME280;57976;48.174;16.370;2024-03-25T07:56:11;98355.73;;;9.83;63.77
70488;BME280;57976;48.174;16.370;2024-03-25T07:58:15;98359.28;;;9.81;63.01
70488;BME280;57976;48.174;16.370;2024-03-25T08:00:20;98355.86;;;9.80;62.41
70488;BME280;57976;48.174;16.370;2024-03-25T08:02:25;98352.21;;;9.81;63.06
70488;BME280;57976;48.174;16.370;2024-03-25T08:04:29;98354.87;;;9.84;63.27
70488;BME280;57976;48.174;16.370;2024-03-25T08:06:33;98353.65;;;9.88;63.41
70488;BME280;57976;48.174;16.370;2024-03-25T08:08:38;98363.43;;;9.92;62.68
70488;BME280;57976;48.174;16.370;2024-03-25T08:10:42;98358.56;;;9.99;62.01
70488;BME280;57976;48.174;16.370;2024-03-25T08:12:47;98371.55;;;10.02;60.99
70488;BME280;57976;48.174;16.370;2024-03-25T08:14:51;98375.85;;;10.01;60.29
70488;BME280;57976;48.174;16.370;2024-03-25T08:16:56;98366.60;;;9.95;60.70
70488;BME280;57976;48.174;16.370;2024-03-25T08:19:00;98362.21;;;9.95;61.34
70488;BME280;57976;48.174;16.370;2024-03-25T08:21:05;98361.79;;;10.00;61.14
70488;BME280;57976;48.174;16.370;2024-03-25T08:23:09;98373.66;;;10.00;60.15
70488;BME280;57976;48.174;16.370;2024-03-25T08:25:14;98368.98;;;10.00;60.06
70488;BME280;57976;48.174;16.370;2024-03-25T08:27:18;98370.92;;;9.96;60.74
70488;BME280;57976;48.174;16.370;2024-03-25T08:29:23;98368.13;;;9.93;60.59
70488;BME280;57976;48.174;16.370;2024-03-25T08:31:27;98375.84;;;9.91;61.30
70488;BME280;57976;48.174;16.370;2024-03-25T08:33:32;98389.34;;;9.91;60.63
70488;BME280;57976;48.174;16.370;2024-03-25T08:35:37;98392.78;;;9.90;59.49
70488;BME280;57976;48.174;16.370;2024-03-25T08:37:41;98376.15;;;9.93;59.74
70488;BME280;57976;48.174;16.370;2024-03-25T08:39:46;98381.68;;;9.96;60.01
70488;BME280;57976;48.174;16.370;2024-03-25T08:41:51;98380.42;;;9.95;60.07
70488;BME280;57976;48.174;16.370;2024-03-25T08:43:55;98374.29;;;9.98;60.05
70488;BME280;57976;48.174;16.370;2024-03-25T08:46:00;98399.23;;;10.01;59.56
70488;BME280;57976;48.174;16.370;2024-03-25T08:48:05;98391.59;;;10.03;58.82
70488;BME280;57976;48.174;16.370;2024-03-25T08:50:10;98394.78;;;10.11;58.78
70488;BME280;57976;48.174;16.370;2024-03-25T08:52:15;98381.05;;;10.20;59.09
70488;BME280;57976;48.174;16.370;2024-03-25T08:54:19;98386.35;;;10.26;58.38
70488;BME280;57976;48.174;16.370;2024-03-25T08:56:24;98395.58;;;10.28;58.68
70488;BME280;57976;48.174;16.370;2024-03-25T08:58:28;98405.69;;;10.32;58.21
70488;BME280;57976;48.174;16.370;2024-03-25T09:00:33;98408.02;;;10.37;57.92
70488;BME280;57976;48.174;16.370;2024-03-25T09:02:37;98396.00;;;10.45;57.58
70488;BME280;57976;48.174;16.370;2024-03-25T09:04:42;98409.10;;;10.60;56.24
70488;BME280;57976;48.174;16.370;2024-03-25T09:06:46;98412.47;;;10.73;55.35
70488;BME280;57976;48.174;16.370;2024-03-25T09:08:51;98402.55;;;10.82;55.03
70488;BME280;57976;48.174;16.370;2024-03-25T09:10:55;98402.30;;;10.89;54.77
70488;BME280;57976;48.174;16.370;2024-03-25T09:13:00;98419.95;;;10.95;54.02
70488;BME280;57976;48.174;16.370;2024-03-25T09:15:06;98411.81;;;10.94;53.27
70488;BME280;57976;48.174;16.370;2024-03-25T09:17:10;98418.27;;;10.90;52.58
70488;BME280;57976;48.174;16.370;2024-03-25T09:19:15;98403.52;;;10.86;53.85
70488;BME280;57976;48.174;16.370;2024-03-25T09:21:19;98408.78;;;10.88;53.18
70488;BME280;57976;48.174;16.370;2024-03-25T09:23:24;98417.85;;;10.90;52.06
70488;BME280;57976;48.174;16.370;2024-03-25T09:25:28;98402.48;;;10.87;51.66
70488;BME280;57976;48.174;16.370;2024-03-25T09:27:33;98412.55;;;10.82;52.10
70488;BME280;57976;48.174;16.370;2024-03-25T09:29:37;98413.20;;;10.80;51.93
70488;BME280;57976;48.174;16.370;2024-03-25T09:31:42;98431.48;;;10.73;51.47
70488;BME280;57976;48.174;16.370;2024-03-25T09:33:46;98414.52;;;10.65;50.95
70488;BME280;57976;48.174;16.370;2024-03-25T09:35:51;98426.17;;;10.61;50.67
70488;BME280;57976;48.174;16.370;2024-03-25T09:37:55;98419.90;;;10.58;50.45
70488;BME280;57976;48.174;16.370;2024-03-25T09:39:59;98407.09;;;10.56;50.94
70488;BME280;57976;48.174;16.370;2024-03-25T09:42:07;98414.61;;;10.57;51.50
70488;BME280;57976;48.174;16.370;2024-03-25T09:44:12;98399.36;;;10.62;51.71
70488;BME280;57976;48.174;16.370;2024-03-25T09:46:17;98418.97;;;10.64;51.98
70488;BME280;57976;48.174;16.370;2024-03-25T09:48:22;98430.95;;;10.66;51.62
70488;BME280;57976;48.174;16.370;2024-03-25T09:50:26;98407.01;;;10.67;51.82
70488;BME280;57976;48.174;16.370;2024-03-25T09:52:31;98403.89;;;10.69;51.78
70488;BME280;57976;48.174;16.370;2024-03-25T09:54:36;98394.92;;;10.73;51.69
70488;BME280;57976;48.174;16.370;2024-03-25T09:56:41;98398.67;;;10.77;51.09
70488;BME280;57976;48.174;16.370;2024-03-25T09:58:46;98411.29;;;10.81;51.33
70488;BME280;57976;48.174;16.370;2024-03-25T10:00:51;98401.12;;;10.85;51.45
70488;BME280;57976;48.174;16.370;2024-03-25T10:02:55;98408.04;;;10.86;51.64
70488;BME280;57976;48.174;16.370;2024-03-25T10:05:00;98400.02;;;10.83;51.64
70488;BME280;57976;48.174;16.370;2024-03-25T10:07:04;98399.88;;;10.86;51.77
70488;BME280;57976;48.174;16.370;2024-03-25T10:09:09;98392.88;;;10.87;50.85
70488;BME280;57976;48.174;16.370;2024-03-25T10:11:16;98394.27;;;10.91;51.36
70488;BME280;57976;48.174;16.370;2024-03-25T10:13:21;98388.73;;;10.98;50.61
70488;BME280;57976;48.174;16.370;2024-03-25T10:15:26;98385.86;;;11.03;49.93
70488;BME280;57976;48.174;16.370;2024-03-25T10:17:32;98379.83;;;11.05;49.89
70488;BME280;57976;48.174;16.370;2024-03-25T10:19:37;98384.95;;;11.06;49.70
70488;BME280;57976;48.174;16.370;2024-03-25T10:21:45;98371.69;;;11.05;48.71
70488;BME280;57976;48.174;16.370;2024-03-25T10:23:50;98383.28;;;11.09;48.10
70488;BME280;57976;48.174;16.370;2024-03-25T10:25:55;98379.13;;;11.09;47.32
70488;BME280;57976;48.174;16.370;2024-03-25T10:28:02;98379.13;;;11.09;48.12
70488;BME280;57976;48.174;16.370;2024-03-25T10:30:10;98383.02;;;11.07;48.08
70488;BME280;57976;48.174;16.370;2024-03-25T10:32:15;98376.05;;;11.06;48.64
70488;BME280;57976;48.174;16.370;2024-03-25T10:34:19;98377.00;;;11.09;48.45
70488;BME280;57976;48.174;16.370;2024-03-25T10:36:24;98372.38;;;11.14;48.50
70488;BME280;57976;48.174;16.370;2024-03-25T10:38:30;98367.77;;;11.18;48.85
70488;BME280;57976;48.174;16.370;2024-03-25T10:40:37;98371.62;;;11.20;49.57
70488;BME280;57976;48.174;16.370;2024-03-25T10:42:43;98359.38;;;11.25;49.29
70488;BME280;57976;48.174;16.370;2024-03-25T10:44:49;98374.35;;;11.33;49.15
70488;BME280;57976;48.174;16.370;2024-03-25T10:46:57;98374.43;;;11.38;48.55
70488;BME280;57976;48.174;16.370;2024-03-25T10:49:10;98376.87;;;11.42;48.83
70488;BME280;57976;48.174;16.370;2024-03-25T10:51:21;98378.52;;;11.44;47.81
70488;BME280;57976;48.174;16.370;2024-03-25T10:53:28;98387.52;;;11.46;47.13
70488;BME280;57976;48.174;16.370;2024-03-25T10:55:33;98379.02;;;11.45;47.32
70488;BME280;57976;48.174;16.370;2024-03-25T10:57:39;98369.96;;;11.45;47.70